Time;durP1;ratioP1;P1;durP2;ratioP2;P2;SDS_P1;SDS_P2;PMS_P1;PMS_P2;Temp;Humidity;BMP_temperature;BMP_pressure;BME280_temperature;BME280_humidity;BME280_pressure;Samples;Min_cycle;Max_cycle;Signal;HPM_P1;HPM_P2
2022/10/29 00:02:01;;;;;;;7.20;6.53;;;;;;;9.23;65.14;96061.50;5136852;27;20171;-69
2022/10/29 00:04:31;;;;;;;7.07;6.40;;;;;;;9.19;65.21;96058.59;5136664;27;20191;-69
2022/10/29 00:06:58;;;;;;;8.02;6.30;;;;;;;9.19;65.55;96055.84;5135771;27;20214;-68
2022/10/29 00:09:24;;;;;;;6.88;6.07;;;;;;;9.20;65.69;96048.38;5135345;27;20625;-69
2022/10/29 00:11:51;;;;;;;7.10;6.47;;;;;;;9.20;65.58;96053.88;5135941;27;20216;-69
2022/10/29 00:14:18;;;;;;;8.18;6.40;;;;;;;9.18;65.38;96045.94;5136666;27;20180;-69
2022/10/29 00:16:45;;;;;;;7.00;6.30;;;;;;;9.15;65.43;96046.59;5135767;27;20194;-69
2022/10/29 00:19:12;;;;;;;7.10;6.40;;;;;;;9.11;65.72;96045.59;5135593;27;20194;-69
2022/10/29 00:21:40;;;;;;;7.20;6.50;;;;;;;9.09;65.42;96045.13;5136651;27;20191;-69
2022/10/29 00:24:09;;;;;;;7.68;6.40;;;;;;;9.04;65.47;96037.81;5135731;27;20244;-69
2022/10/29 00:26:35;;;;;;;7.75;6.40;;;;;;;9.02;65.70;96048.31;5136414;27;20203;-68
2022/10/29 00:29:02;;;;;;;8.15;7.35;;;;;;;8.94;65.15;96031.81;5136187;27;20191;-68
2022/10/29 00:31:29;;;;;;;8.65;7.75;;;;;;;8.91;65.31;96042.31;5135379;27;20541;-69
2022/10/29 00:33:56;;;;;;;8.15;7.35;;;;;;;8.87;65.45;96030.31;5136522;27;20236;-69
2022/10/29 00:36:25;;;;;;;8.23;7.50;;;;;;;8.87;65.40;96035.81;5136344;27;20186;-69
2022/10/29 00:38:53;;;;;;;8.68;7.88;;;;;;;8.85;65.54;96035.31;5135253;27;20238;-69
2022/10/29 00:41:22;;;;;;;8.15;7.38;;;;;;;8.84;65.94;96035.66;5135622;27;20176;-69
2022/10/29 00:43:50;;;;;;;7.10;6.40;;;;;;;8.83;66.02;96031.28;5136614;27;20274;-69
2022/10/29 00:46:21;;;;;;;6.13;5.50;;;;;;;8.87;65.88;96035.00;5134951;28;20207;-69
2022/10/29 00:48:50;;;;;;;6.30;5.47;;;;;;;8.87;65.87;96030.31;5136257;28;20175;-69
2022/10/29 00:51:17;;;;;;;6.20;5.55;;;;;;;8.89;65.90;96024.47;5134837;28;20202;-69
2022/10/29 00:53:47;;;;;;;7.15;5.40;;;;;;;8.91;66.20;96025.78;5135444;28;20188;-69
2022/10/29 00:56:16;;;;;;;7.80;5.47;;;;;;;8.91;66.20;96034.06;5135446;28;20210;-69
2022/10/29 00:58:43;;;;;;;6.30;5.70;;;;;;;8.96;66.16;96030.34;5135462;28;20202;-69
2022/10/29 01:01:10;;;;;;;6.45;5.85;;;;;;;8.95;65.77;96030.66;5136331;28;20179;-69
2022/10/29 01:03:39;;;;;;;7.05;6.10;;;;;;;8.92;65.86;96023.84;5136083;28;20187;-69
2022/10/29 01:06:06;;;;;;;6.43;5.90;;;;;;;8.89;65.68;96029.97;5135718;28;20634;-69
2022/10/29 01:08:33;;;;;;;7.20;6.50;;;;;;;8.82;66.12;96029.63;5136069;28;20183;-69
2022/10/29 01:11:15;;;;;;;6.88;6.28;;;;;;;8.76;65.74;96020.72;5136060;28;20187;-68
2022/10/29 01:13:54;;;;;;;7.03;6.22;;;;;;;8.71;65.72;96015.34;5136208;28;20202;-68
2022/10/29 01:16:28;;;;;;;6.72;6.15;;;;;;;8.64;65.96;96015.84;5135227;28;20191;-69
2022/10/29 01:19:01;;;;;;;6.93;6.20;;;;;;;8.62;66.09;96009.84;5134751;28;20195;-69
2022/10/29 01:21:39;;;;;;;6.72;6.13;;;;;;;8.59;66.03;96004.97;5135837;28;20188;-68
2022/10/29 01:24:50;;;;;;;7.20;6.60;;;;;;;8.56;66.29;96008.34;5135857;28;20191;-69
2022/10/29 01:27:44;;;;;;;8.35;6.50;;;;;;;8.57;66.22;95998.16;5135354;27;20539;-68
2022/10/29 01:30:18;;;;;;;8.07;7.18;;;;;;;8.56;66.05;96002.03;5126798;27;20211;-69
2022/10/29 01:32:57;;;;;;;7.78;6.50;;;;;;;8.54;66.66;96007.88;5135617;28;20183;-68
2022/10/29 01:35:30;;;;;;;6.50;5.90;;;;;;;8.52;66.55;96003.81;5134770;28;20194;-69
2022/10/29 01:38:07;;;;;;;6.57;5.97;;;;;;;8.50;66.77;96004.13;5135543;28;20277;-69
2022/10/29 01:40:37;;;;;;;7.13;6.43;;;;;;;8.51;66.67;96005.75;5134826;27;20198;-69
2022/10/29 01:43:07;;;;;;;6.90;6.15;;;;;;;8.50;66.68;96004.13;5138548;27;20548;-68
2022/10/29 01:45:36;;;;;;;7.45;6.28;;;;;;;8.50;66.53;95997.81;5138172;27;20602;-68
2022/10/29 01:48:08;;;;;;;7.13;6.20;;;;;;;8.49;66.79;95996.19;5138998;27;20203;-68
2022/10/29 01:50:36;;;;;;;7.63;6.20;;;;;;;8.51;66.78;95994.75;5139344;27;20199;-69
2022/10/29 01:53:04;;;;;;;7.20;6.60;;;;;;;8.53;66.84;95997.97;5138593;27;20203;-69
2022/10/29 01:55:34;;;;;;;6.82;6.13;;;;;;;8.47;66.66;95988.25;5139228;27;20187;-69
2022/10/29 01:58:03;;;;;;;7.43;6.80;;;;;;;8.45;66.73;95993.25;5138972;27;20297;-69
2022/10/29 02:00:35;;;;;;;6.60;5.90;;;;;;;8.43;66.85;95992.78;5138586;27;20201;-69
2022/10/29 02:03:14;;;;;;;8.63;6.32;;;;;;;8.38;66.46;95992.91;5138252;27;20193;-69
2022/10/29 02:05:46;;;;;;;6.90;6.20;;;;;;;8.26;66.43;95995.41;5138191;27;20218;-70
2022/10/29 02:08:19;;;;;;;8.85;6.40;;;;;;;8.19;66.83;95985.66;5138946;27;20187;-69
2022/10/29 02:10:48;;;;;;;7.00;6.30;;;;;;;8.24;66.79;95990.22;5138317;27;20202;-70
2022/10/29 02:13:18;;;;;;;7.10;6.43;;;;;;;8.29;67.13;95981.84;5138846;27;20191;-70
2022/10/29 02:15:47;;;;;;;7.85;7.10;;;;;;;8.26;66.16;95984.41;5137877;27;20199;-70
2022/10/29 02:18:16;;;;;;;8.93;7.93;;;;;;;8.17;66.45;95967.88;5137708;27;20686;-70
2022/10/29 02:20:43;;;;;;;7.88;7.13;;;;;;;8.12;66.95;95982.56;5137753;27;20198;-70
2022/10/29 02:23:10;;;;;;;8.82;7.60;;;;;;;8.10;66.66;95975.78;5137922;27;20206;-69
2022/10/29 02:25:37;;;;;;;8.50;7.70;;;;;;;8.03;66.70;95978.97;5138077;27;20187;-69
2022/10/29 02:28:04;;;;;;;9.00;7.53;;;;;;;8.03;66.49;95978.16;5137991;27;20187;-69
2022/10/29 02:30:31;;;;;;;8.32;6.97;;;;;;;8.02;66.73;95979.25;5137484;27;20205;-69
2022/10/29 02:32:57;;;;;;;7.65;6.80;;;;;;;7.99;66.77;95983.47;5137602;27;20198;-69
2022/10/29 02:35:26;;;;;;;8.52;6.60;;;;;;;7.97;67.00;95971.97;5137431;27;20190;-69
2022/10/29 02:37:52;;;;;;;9.02;6.88;;;;;;;7.97;67.10;95974.72;5137531;27;20671;-69
2022/10/29 02:40:19;;;;;;;8.32;6.38;;;;;;;7.98;67.01;95976.31;5137591;27;20191;-69
2022/10/29 02:42:46;;;;;;;9.82;6.72;;;;;;;7.97;67.21;95975.53;5137274;27;20191;-69
2022/10/29 02:45:13;;;;;;;7.55;6.85;;;;;;;7.97;66.81;95975.53;5138303;27;20194;-69
2022/10/29 02:47:40;;;;;;;8.23;7.43;;;;;;;7.96;67.18;95978.59;5137345;27;20313;-69
2022/10/29 02:50:08;;;;;;;8.50;6.57;;;;;;;7.99;67.25;95974.38;5137497;27;20591;-69
2022/10/29 02:52:36;;;;;;;7.60;6.75;;;;;;;8.01;67.25;95974.91;5137377;27;20199;-69
2022/10/29 02:55:03;;;;;;;7.78;6.65;;;;;;;8.01;67.00;95970.22;5138241;27;20179;-69
2022/10/29 02:57:30;;;;;;;7.15;6.32;;;;;;;7.96;66.81;95981.34;5137935;27;20535;-69
2022/10/29 02:59:57;;;;;;;6.85;6.15;;;;;;;7.96;67.00;95976.66;5137500;27;20194;-69
2022/10/29 03:02:24;;;;;;;8.68;6.55;;;;;;;7.96;67.04;95970.34;5137991;27;20179;-69
2022/10/29 03:04:50;;;;;;;7.10;6.43;;;;;;;7.93;67.24;95974.53;5138010;27;20199;-69
2022/10/29 03:07:17;;;;;;;7.68;6.90;;;;;;;7.90;67.14;95972.41;5137478;27;20214;-69
2022/10/29 03:09:45;;;;;;;9.52;7.60;;;;;;;7.83;66.87;95974.78;5137955;27;20191;-69
2022/10/29 03:12:12;;;;;;;10.98;9.90;;;;;;;7.79;66.93;95976.53;5137154;27;20211;-69
2022/10/29 03:14:38;;;;;;;8.88;7.97;;;;;;;7.78;66.89;95980.41;5137807;27;20203;-69
2022/10/29 03:17:05;;;;;;;7.75;6.93;;;;;;;7.70;66.85;95978.44;5136914;27;20183;-69
2022/10/29 03:19:32;;;;;;;8.13;7.32;;;;;;;7.67;67.27;95979.06;5137718;27;20179;-69
2022/10/29 03:21:59;;;;;;;7.88;7.13;;;;;;;7.64;67.27;95971.44;5137284;27;20539;-69
2022/10/29 03:24:26;;;;;;;7.97;6.80;;;;;;;7.62;67.73;95963.50;5136769;27;20194;-69
2022/10/29 03:26:54;;;;;;;8.38;7.55;;;;;;;7.63;67.80;95958.84;5137180;27;20210;-69
2022/10/29 03:29:21;;;;;;;8.50;7.70;;;;;;;7.64;67.68;95964.00;5137469;27;20255;-69
2022/10/29 03:31:47;;;;;;;8.10;7.40;;;;;;;7.66;67.27;95969.16;5136141;27;20234;-69
2022/10/29 03:34:14;;;;;;;7.93;7.22;;;;;;;7.62;67.32;95966.22;5136298;27;20187;-69
2022/10/29 03:36:41;;;;;;;8.35;7.15;;;;;;;7.58;67.73;95959.75;5137477;27;20183;-69
2022/10/29 03:39:08;;;;;;;7.93;6.72;;;;;;;7.59;67.72;95957.81;5135985;27;20250;-69
2022/10/29 03:41:34;;;;;;;7.43;6.53;;;;;;;7.58;67.39;95956.19;5136499;27;20194;-69
2022/10/29 03:44:02;;;;;;;7.55;6.80;;;;;;;7.57;67.82;95955.38;5136588;27;20195;-69
2022/10/29 03:46:29;;;;;;;7.25;6.15;;;;;;;7.59;68.11;95953.16;5136109;27;20630;-69
2022/10/29 03:48:56;;;;;;;7.43;6.72;;;;;;;7.58;67.77;95954.25;5135991;27;20199;-69
2022/10/29 03:51:23;;;;;;;7.45;6.35;;;;;;;7.56;68.04;95962.00;5135788;27;20195;-69
2022/10/29 03:53:50;;;;;;;7.65;6.95;;;;;;;7.52;67.67;95961.03;5135772;27;20191;-70
2022/10/29 03:56:17;;;;;;;7.15;6.45;;;;;;;7.53;67.64;95956.34;5135686;27;20195;-69
2022/10/29 03:58:44;;;;;;;9.15;6.82;;;;;;;7.55;67.97;95951.31;5136155;27;20191;-69
2022/10/29 04:01:13;;;;;;;7.68;6.53;;;;;;;7.56;67.94;95956.53;5136028;27;20191;-69
2022/10/29 04:03:41;;;;;;;6.88;6.07;;;;;;;7.58;67.76;95961.69;5136404;27;20198;-69
2022/10/29 04:06:12;;;;;;;9.13;7.60;;;;;;;7.57;67.87;95960.06;5135559;27;20191;-69
2022/10/29 04:08:39;;;;;;;7.03;6.32;;;;;;;7.56;68.00;95961.22;5135983;27;20209;-69
2022/10/29 04:11:06;;;;;;;8.20;6.60;;;;;;;7.50;67.77;95965.19;5136454;27;20497;-69
2022/10/29 04:13:33;;;;;;;8.63;6.40;;;;;;;7.44;67.73;95959.84;5135445;27;20607;-69
2022/10/29 04:16:00;;;;;;;8.60;6.53;;;;;;;7.43;68.20;95963.69;5136178;27;20202;-69
2022/10/29 04:18:29;;;;;;;7.63;6.68;;;;;;;7.44;68.07;95967.22;5135918;27;20199;-69
2022/10/29 04:20:59;;;;;;;6.78;6.07;;;;;;;7.44;68.00;95962.56;5135689;27;20216;-69
2022/10/29 04:23:26;;;;;;;7.10;6.22;;;;;;;7.48;67.92;95969.06;5135583;27;20627;-69
2022/10/29 04:25:57;;;;;;;7.13;6.45;;;;;;;7.44;68.15;95969.97;5135718;27;20190;-69
2022/10/29 04:28:24;;;;;;;9.30;7.40;;;;;;;7.29;67.45;95975.81;5135795;27;20214;-69
2022/10/29 04:30:51;;;;;;;7.75;7.05;;;;;;;7.18;67.28;95973.31;5136141;27;20618;-69
2022/10/29 04:33:18;;;;;;;8.57;7.22;;;;;;;7.17;67.95;95979.94;5135292;27;20201;-69
2022/10/29 04:35:52;;;;;;;7.57;6.88;;;;;;;7.19;67.70;95979.63;5118364;28;20575;-69
2022/10/29 04:38:19;;;;;;;7.45;6.63;;;;;;;7.18;67.97;95975.25;5134960;27;20283;-69
2022/10/29 04:40:45;;;;;;;7.38;6.68;;;;;;;7.13;67.75;95975.38;5135314;27;20564;-69
2022/10/29 04:43:12;;;;;;;6.85;6.15;;;;;;;7.12;67.64;95979.25;5136205;27;20202;-69
2022/10/29 04:45:39;;;;;;;7.70;6.25;;;;;;;7.09;67.76;95980.66;5135311;27;20202;-69
2022/10/29 04:48:06;;;;;;;7.75;6.95;;;;;;;7.07;68.15;95982.09;5135393;28;20218;-69
2022/10/29 04:50:34;;;;;;;7.63;6.78;;;;;;;7.11;68.25;95983.09;5136265;28;20256;-68
2022/10/29 04:53:03;;;;;;;11.68;7.88;;;;;;;7.10;67.90;95985.03;5135307;28;20193;-69
2022/10/29 04:55:30;;;;;;;8.43;7.00;;;;;;;7.10;67.86;95984.22;5136160;28;20187;-69
2022/10/29 04:57:57;;;;;;;7.65;6.78;;;;;;;7.11;68.27;95983.09;5135812;28;20629;-69
2022/10/29 05:00:24;;;;;;;7.72;6.97;;;;;;;7.12;67.99;95982.81;5135453;28;20213;-69
2022/10/29 05:02:51;;;;;;;9.70;8.02;;;;;;;7.14;67.90;95974.25;5136026;28;20192;-69
2022/10/29 05:05:21;;;;;;;7.55;6.72;;;;;;;7.14;67.91;95977.78;5135681;28;20248;-69
2022/10/29 05:07:48;;;;;;;7.93;7.13;;;;;;;7.19;68.57;95980.44;5135276;28;20214;-69
2022/10/29 05:10:16;;;;;;;10.02;6.90;;;;;;;7.22;68.68;95985.28;5135573;28;20217;-69
2022/10/29 05:12:44;;;;;;;8.02;7.13;;;;;;;7.24;68.39;95979.50;5135119;28;20218;-69
2022/10/29 05:15:11;;;;;;;9.20;7.50;;;;;;;7.24;68.15;95979.50;5135819;27;20583;-69
2022/10/29 05:17:38;;;;;;;9.13;7.53;;;;;;;7.24;67.97;95988.53;5139367;27;20525;-68
2022/10/29 05:20:07;;;;;;;11.20;9.27;;;;;;;7.17;67.84;95987.34;5139610;27;20194;-68
2022/10/29 05:22:34;;;;;;;13.05;9.73;;;;;;;7.11;68.12;95983.09;5140225;27;20191;-68
2022/10/29 05:25:01;;;;;;;14.63;8.90;;;;;;;7.09;67.78;95974.38;5139976;27;20183;-68
2022/10/29 05:27:30;;;;;;;13.05;8.63;;;;;;;7.08;68.49;95979.06;5139446;27;20214;-68
2022/10/29 05:29:57;;;;;;;11.70;8.85;;;;;;;7.11;68.70;95978.41;5139887;27;20242;-68
2022/10/29 05:32:23;;;;;;;9.93;8.50;;;;;;;7.15;68.48;95982.19;5139398;27;20534;-68
2022/10/29 05:34:50;;;;;;;11.05;8.50;;;;;;;7.17;68.79;95988.16;5139628;27;20210;-68
2022/10/29 05:37:17;;;;;;;13.10;8.63;;;;;;;7.19;68.43;95988.69;5138822;27;20198;-68
2022/10/29 05:39:44;;;;;;;11.23;8.15;;;;;;;7.21;68.71;95988.34;5139394;27;20231;-68
2022/10/29 05:42:10;;;;;;;13.05;9.13;;;;;;;7.24;68.32;95987.75;5138522;27;20220;-68
2022/10/29 05:44:38;;;;;;;11.70;9.18;;;;;;;7.28;68.18;95988.75;5138424;27;20195;-70
2022/10/29 05:47:06;;;;;;;12.32;9.10;;;;;;;7.33;68.96;95996.84;5139496;27;20203;-69
2022/10/29 05:49:33;;;;;;;12.95;8.80;;;;;;;7.38;68.75;95994.00;5138703;27;20213;-69
2022/10/29 05:51:59;;;;;;;9.82;7.95;;;;;;;7.41;68.80;95995.31;5138320;27;20195;-70
2022/10/29 05:54:26;;;;;;;13.43;11.80;;;;;;;7.43;68.75;95999.34;5138814;27;20727;-69
2022/10/29 05:56:53;;;;;;;12.60;10.30;;;;;;;7.47;69.10;96000.34;5139480;27;20199;-69
2022/10/29 05:59:20;;;;;;;14.20;11.00;;;;;;;7.51;69.14;96000.56;5138325;27;20263;-70
2022/10/29 06:01:49;;;;;;;13.10;10.80;;;;;;;7.58;69.19;96000.13;5138421;27;20205;-69
2022/10/29 06:04:16;;;;;;;15.45;11.65;;;;;;;7.68;69.66;95997.13;5139242;27;20183;-69
2022/10/29 06:06:42;;;;;;;13.85;10.38;;;;;;;7.77;69.34;96003.53;5138117;27;20195;-70
2022/10/29 06:09:09;;;;;;;12.15;10.00;;;;;;;7.83;69.42;95999.50;5139066;27;20541;-69
2022/10/29 06:11:36;;;;;;;11.65;9.57;;;;;;;7.89;69.23;96009.25;5138916;27;20199;-70
2022/10/29 06:14:03;;;;;;;10.45;9.23;;;;;;;7.98;69.59;96009.28;5138597;27;20202;-70
2022/10/29 06:16:30;;;;;;;11.38;9.05;;;;;;;8.06;69.50;96011.31;5138074;27;20190;-70
2022/10/29 06:18:59;;;;;;;11.80;9.00;;;;;;;8.13;69.54;96008.94;5138078;27;20296;-70
2022/10/29 06:21:25;;;;;;;9.93;8.68;;;;;;;8.24;69.81;96014.94;5137997;27;20192;-70
2022/10/29 06:23:54;;;;;;;9.70;8.50;;;;;;;8.34;69.53;96011.94;5137591;27;20187;-69
2022/10/29 06:26:21;;;;;;;9.20;8.20;;;;;;;8.44;69.33;96019.94;5137922;27;20191;-70
2022/10/29 06:28:48;;;;;;;10.48;9.38;;;;;;;8.57;69.35;96021.00;5136675;27;20283;-68
2022/10/29 06:31:15;;;;;;;11.93;9.02;;;;;;;8.74;69.02;96022.16;5138679;27;20202;-69
2022/10/29 06:33:42;;;;;;;11.00;8.52;;;;;;;8.84;68.65;96008.94;5138316;27;20187;-69
2022/10/29 06:36:10;;;;;;;10.00;9.00;;;;;;;8.99;68.18;96013.19;5138644;27;20187;-69
2022/10/29 06:38:37;;;;;;;11.10;8.57;;;;;;;9.12;67.90;96014.22;5138739;27;20227;-69
2022/10/29 06:41:03;;;;;;;11.38;8.90;;;;;;;9.23;67.40;96003.69;5138308;27;20191;-69
2022/10/29 06:43:30;;;;;;;11.30;8.93;;;;;;;9.33;67.32;96000.63;5137528;27;20285;-69
2022/10/29 06:45:57;;;;;;;10.68;9.57;;;;;;;9.42;67.07;96006.97;5138490;27;20195;-71
2022/10/29 06:48:23;;;;;;;13.93;9.30;;;;;;;9.48;67.02;96002.91;5137332;27;20638;-69
2022/10/29 06:50:50;;;;;;;14.00;10.05;;;;;;;9.58;67.10;96010.84;5137481;27;20199;-68
2022/10/29 06:53:19;;;;;;;11.45;9.90;;;;;;;9.69;67.00;96005.00;5137285;27;20619;-69
2022/10/29 06:55:46;;;;;;;12.38;9.73;;;;;;;9.76;66.65;96010.84;5138390;27;20183;-69
2022/10/29 06:58:14;;;;;;;12.40;10.05;;;;;;;9.85;66.62;96008.91;5137819;27;20244;-69
2022/10/29 07:00:41;;;;;;;13.30;9.90;;;;;;;9.92;66.40;96005.66;5137200;27;20248;-69
2022/10/29 07:03:09;;;;;;;13.70;11.85;;;;;;;10.02;66.30;95997.88;5137204;27;20199;-69
2022/10/29 07:05:36;;;;;;;14.70;11.63;;;;;;;10.15;65.88;96003.53;5137789;27;20206;-69
2022/10/29 07:08:02;;;;;;;13.88;11.52;;;;;;;10.26;65.96;96004.81;5138314;27;20199;-69
2022/10/29 07:10:32;;;;;;;13.07;11.60;;;;;;;10.35;66.03;96011.94;5137364;27;20195;-69
2022/10/29 07:13:00;;;;;;;17.88;13.40;;;;;;;10.41;65.25;96017.25;5137123;27;20199;-69
2022/10/29 07:15:27;;;;;;;16.77;12.70;;;;;;;10.49;65.45;96022.75;5119594;27;20199;-69
2022/10/29 07:17:58;;;;;;;16.85;14.88;;;;;;;10.56;64.92;96023.06;5137490;27;20303;-69
2022/10/29 07:20:24;;;;;;;16.45;14.75;;;;;;;10.66;64.66;96023.84;5136844;27;20207;-69
2022/10/29 07:22:52;;;;;;;17.40;15.20;;;;;;;10.73;64.29;96013.09;5136868;27;20195;-68
2022/10/29 07:25:19;;;;;;;17.48;14.15;;;;;;;10.83;64.21;96021.03;5136593;27;20206;-70
2022/10/29 07:27:47;;;;;;;18.33;13.75;;;;;;;10.90;63.65;96015.78;5137791;27;20207;-69
2022/10/29 07:30:14;;;;;;;16.98;13.60;;;;;;;10.96;63.59;96019.16;5137635;27;20179;-69
2022/10/29 07:32:41;;;;;;;16.70;14.90;;;;;;;11.06;63.50;96019.59;5136483;27;20194;-69
2022/10/29 07:35:08;;;;;;;19.10;15.48;;;;;;;11.17;63.25;96014.50;5137398;27;20186;-69
2022/10/29 07:37:35;;;;;;;15.05;13.38;;;;;;;11.28;63.04;96014.94;5136025;27;20199;-69
2022/10/29 07:40:01;;;;;;;16.02;12.68;;;;;;;11.35;62.58;96017.16;5135974;27;20195;-69
2022/10/29 07:42:28;;;;;;;20.88;12.65;;;;;;;11.44;62.38;96009.66;5136357;27;20192;-69
2022/10/29 07:44:56;;;;;;;15.50;11.95;;;;;;;11.50;61.65;96011.03;5136488;27;20191;-69
2022/10/29 07:47:23;;;;;;;15.77;12.18;;;;;;;11.62;61.93;96004.78;5136839;27;20179;-69
2022/10/29 07:49:50;;;;;;;14.50;11.57;;;;;;;11.73;61.17;96012.34;5136217;27;20206;-69
2022/10/29 07:52:17;;;;;;;15.80;11.07;;;;;;;11.86;61.70;96013.25;5135920;27;20187;-69
2022/10/29 07:54:44;;;;;;;12.80;10.57;;;;;;;11.98;61.37;96007.78;5137027;27;20183;-69
2022/10/29 07:57:11;;;;;;;12.52;10.68;;;;;;;12.07;60.92;96007.69;5136945;27;20195;-69
2022/10/29 07:59:38;;;;;;;15.68;12.13;;;;;;;12.19;60.77;96002.19;5136207;27;20191;-68
2022/10/29 08:02:08;;;;;;;16.73;12.75;;;;;;;12.30;60.15;96005.34;5137063;27;20187;-69
2022/10/29 08:04:35;;;;;;;16.67;13.38;;;;;;;12.40;60.19;95996.63;5136937;27;20179;-69
2022/10/29 08:07:02;;;;;;;19.30;13.25;;;;;;;12.54;59.73;96007.38;5136816;27;20179;-69
2022/10/29 08:09:28;;;;;;;16.92;12.38;;;;;;;12.64;58.82;96001.41;5136572;27;20218;-69
2022/10/29 08:11:55;;;;;;;17.42;13.10;;;;;;;12.71;58.74;95989.78;5136012;27;20195;-69
2022/10/29 08:14:22;;;;;;;16.95;12.07;;;;;;;12.84;58.82;95994.16;5136350;27;20533;-69
2022/10/29 08:16:49;;;;;;;15.68;12.65;;;;;;;12.94;58.38;95992.91;5135549;27;20209;-68
2022/10/29 08:19:17;;;;;;;17.95;12.70;;;;;;;13.09;57.79;95994.16;5136503;27;20193;-69
2022/10/29 08:21:44;;;;;;;15.82;12.65;;;;;;;13.21;57.25;95994.16;5136546;27;20190;-69
2022/10/29 08:24:10;;;;;;;15.65;11.80;;;;;;;13.34;57.48;95984.72;5136078;27;20293;-69
2022/10/29 08:26:37;;;;;;;15.48;12.95;;;;;;;13.45;56.97;95983.06;5135514;27;20199;-69
2022/10/29 08:29:04;;;;;;;14.65;11.15;;;;;;;13.61;57.12;95983.13;5135479;27;20221;-69
2022/10/29 08:31:31;;;;;;;13.73;10.77;;;;;;;13.77;57.23;95988.78;5135416;27;20213;-68
2022/10/29 08:33:58;;;;;;;14.93;11.38;;;;;;;13.91;57.11;95989.19;5135468;27;20202;-68
2022/10/29 08:36:26;;;;;;;13.10;10.15;;;;;;;14.06;56.23;95982.09;5135730;27;20256;-68
2022/10/29 08:38:53;;;;;;;11.73;9.95;;;;;;;14.19;55.83;95982.81;5135142;27;20226;-68
2022/10/29 08:41:35;;;;;;;10.57;9.20;;;;;;;14.33;54.93;95977.66;5135425;27;20202;-68
2022/10/29 08:44:20;;;;;;;10.85;9.65;;;;;;;14.46;55.29;95967.31;5135966;27;20179;-69
2022/10/29 08:46:50;;;;;;;12.15;9.82;;;;;;;14.66;54.51;95962.69;5135959;28;20195;-69
2022/10/29 08:49:19;;;;;;;12.45;9.98;;;;;;;14.80;54.38;95968.63;5136076;27;20259;-68
2022/10/29 08:51:53;;;;;;;30.70;12.80;;;;;;;14.97;53.45;95966.66;5135963;27;20186;-68
2022/10/29 08:54:21;;;;;;;22.60;11.50;;;;;;;15.10;53.39;95960.63;5136427;27;20183;-68
2022/10/29 08:56:50;;;;;;;15.40;10.32;;;;;;;15.23;53.60;95952.19;5136129;27;20183;-68
2022/10/29 08:59:19;;;;;;;13.45;11.15;;;;;;;15.35;52.81;95947.31;5134906;28;20198;-68
2022/10/29 09:01:46;;;;;;;14.52;10.90;;;;;;;15.43;53.06;95950.25;5135886;27;20194;-68
2022/10/29 09:04:23;;;;;;;11.98;10.45;;;;;;;15.57;53.28;95947.78;5136192;27;20190;-68
2022/10/29 09:07:04;;;;;;;12.35;10.50;;;;;;;15.71;52.96;95948.13;5135189;28;20226;-69
2022/10/29 09:09:36;;;;;;;11.48;10.27;;;;;;;15.91;52.34;95950.94;5135703;27;20203;-69
2022/10/29 09:12:15;;;;;;;11.63;9.60;;;;;;;16.07;51.31;95943.31;5135118;28;20198;-68
2022/10/29 09:14:56;;;;;;;11.48;9.80;;;;;;;16.19;51.01;95943.13;5134736;28;20187;-68
2022/10/29 09:17:29;;;;;;;15.30;11.95;;;;;;;16.31;50.91;95936.63;5135634;28;20187;-68
2022/10/29 09:20:08;;;;;;;9.73;8.73;;;;;;;16.43;50.26;95941.19;5136121;27;20183;-69
2022/10/29 09:22:46;;;;;;;10.80;9.07;;;;;;;16.59;49.82;95928.78;5135171;28;20198;-69
2022/10/29 09:25:17;;;;;;;12.93;9.73;;;;;;;16.74;49.75;95926.25;5134986;28;20210;-69
2022/10/29 09:27:55;;;;;;;13.43;9.57;;;;;;;16.87;49.42;95930.47;5135529;28;20240;-70
2022/10/29 09:30:22;;;;;;;13.45;9.88;;;;;;;16.96;49.43;95928.25;5135006;28;20206;-70
2022/10/29 09:32:55;;;;;;;14.00;11.40;;;;;;;17.07;49.56;95923.63;5135112;28;20202;-70
2022/10/29 09:35:23;;;;;;;13.73;11.52;;;;;;;17.22;49.20;95927.44;5134853;28;20190;-69
2022/10/29 09:37:53;;;;;;;11.80;9.55;;;;;;;17.33;48.88;95927.63;5135314;27;20199;-69
2022/10/29 09:40:35;;;;;;;10.50;8.18;;;;;;;17.44;48.81;95917.41;5135815;28;20195;-69
2022/10/29 09:43:06;;;;;;;7.38;6.60;;;;;;;17.59;47.83;95921.19;5135751;28;20190;-70
2022/10/29 09:45:42;;;;;;;5.70;5.07;;;;;;;17.77;47.37;95911.13;5135646;28;20191;-70
2022/10/29 09:48:12;;;;;;;6.10;5.38;;;;;;;17.98;46.90;95912.56;5135635;28;20243;-70
2022/10/29 09:50:42;;;;;;;7.07;5.30;;;;;;;18.19;46.64;95918.41;5135730;28;20194;-70
2022/10/29 09:53:10;;;;;;;5.60;5.00;;;;;;;18.37;45.87;95910.19;5135594;28;20183;-70
2022/10/29 09:55:40;;;;;;;6.25;5.60;;;;;;;18.48;45.53;95901.94;5135744;27;20252;-70
2022/10/29 09:58:07;;;;;;;6.35;5.55;;;;;;;18.67;45.57;95892.56;5135616;28;20198;-69
2022/10/29 10:00:34;;;;;;;5.30;4.80;;;;;;;18.87;45.84;95890.34;5135565;28;20199;-69
2022/10/29 10:03:04;;;;;;;7.00;5.20;;;;;;;19.05;44.05;95890.47;5136919;27;20279;-69
2022/10/29 10:05:33;;;;;;;4.95;4.45;;;;;;;19.21;44.21;95882.63;5138261;27;20545;-69
2022/10/29 10:08:18;;;;;;;6.20;4.70;;;;;;;19.30;43.65;95883.06;5138927;27;20603;-69
2022/10/29 10:10:52;;;;;;;5.68;4.68;;;;;;;19.32;43.16;95871.47;5136090;27;20293;-69
2022/10/29 10:13:20;;;;;;;5.88;4.05;;;;;;;19.41;43.30;95869.94;5138863;27;20179;-69
2022/10/29 10:15:51;;;;;;;6.60;4.25;;;;;;;19.61;43.00;95870.47;5138183;27;20535;-70
2022/10/29 10:18:19;;;;;;;4.97;3.95;;;;;;;19.82;43.19;95854.97;5138937;27;20191;-69
2022/10/29 10:20:48;;;;;;;5.32;4.00;;;;;;;20.00;42.58;95850.25;5138908;27;20195;-69
2022/10/29 10:23:24;;;;;;;6.72;3.90;;;;;;;19.81;43.02;95850.59;5137976;27;20222;-69
2022/10/29 10:25:52;;;;;;;4.30;3.70;;;;;;;19.84;42.29;95844.19;5138847;27;20175;-69
2022/10/29 10:28:21;;;;;;;4.80;3.70;;;;;;;19.81;41.48;95836.59;5138393;27;20197;-69
2022/10/29 10:31:06;;;;;;;5.60;4.22;;;;;;;19.84;42.26;95831.00;5137568;27;20203;-69
2022/10/29 10:33:34;;;;;;;5.53;3.40;;;;;;;19.99;41.83;95831.06;5137780;27;20194;-70
2022/10/29 10:36:02;;;;;;;4.75;3.17;;;;;;;20.03;41.70;95824.25;5138719;27;20483;-69
2022/10/29 10:38:38;;;;;;;4.47;3.70;;;;;;;20.13;41.77;95820.69;5137422;27;20234;-69
2022/10/29 10:41:07;;;;;;;5.00;3.63;;;;;;;20.30;41.69;95816.31;5137704;27;20202;-69
2022/10/29 10:43:34;;;;;;;4.50;3.67;;;;;;;20.03;40.93;95815.06;5138440;27;20202;-69
2022/10/29 10:46:05;;;;;;;4.50;4.10;;;;;;;19.83;41.98;95814.63;5137567;27;20203;-69
2022/10/29 10:48:33;;;;;;;4.47;3.63;;;;;;;19.60;41.67;95815.69;5138466;27;20203;-69
2022/10/29 10:51:26;;;;;;;4.55;3.42;;;;;;;19.58;42.35;95797.69;5137348;27;20195;-70
2022/10/29 10:53:54;;;;;;;4.10;3.70;;;;;;;19.68;42.52;95796.94;5138311;27;20185;-70
2022/10/29 10:56:22;;;;;;;3.80;3.10;;;;;;;19.73;42.07;95798.59;5138274;27;20195;-69
2022/10/29 10:58:54;;;;;;;3.85;3.45;;;;;;;19.81;42.05;95791.81;5136997;27;20199;-69
2022/10/29 11:01:25;;;;;;;4.32;3.53;;;;;;;19.85;41.66;95785.00;5138136;27;20187;-69
2022/10/29 11:03:58;;;;;;;4.00;3.70;;;;;;;19.89;41.61;95788.63;5137567;27;20203;-70
2022/10/29 11:06:28;;;;;;;5.40;3.75;;;;;;;19.85;41.94;95778.63;5137247;27;20191;-70
2022/10/29 11:09:01;;;;;;;3.65;3.33;;;;;;;19.83;41.58;95775.44;5136975;27;20595;-70
2022/10/29 11:11:31;;;;;;;3.85;3.45;;;;;;;19.83;42.22;95773.44;5137900;27;20202;-70
2022/10/29 11:14:05;;;;;;;5.75;4.15;;;;;;;19.75;41.95;95765.38;5137723;27;20231;-70
2022/10/29 11:16:39;;;;;;;5.25;4.07;;;;;;;19.62;41.76;95764.94;5137993;27;20178;-70
2022/10/29 11:19:12;;;;;;;5.32;4.07;;;;;;;19.52;42.08;95762.91;5137809;27;20190;-70
2022/10/29 11:21:43;;;;;;;5.45;3.47;;;;;;;19.47;42.80;95761.28;5136762;27;20183;-69
2022/10/29 11:24:17;;;;;;;6.47;4.28;;;;;;;19.44;42.87;95754.47;5137798;27;20186;-69
2022/10/29 11:26:47;;;;;;;6.53;4.00;;;;;;;19.38;42.64;95746.84;5136770;27;20227;-69
2022/10/29 11:29:20;;;;;;;8.10;4.35;;;;;;;19.32;42.89;95749.25;5137032;27;20214;-70
2022/10/29 11:31:52;;;;;;;4.40;4.00;;;;;;;19.30;43.13;95742.44;5136685;27;20195;-70
2022/10/29 11:34:23;;;;;;;6.90;4.10;;;;;;;19.34;43.06;95734.84;5137455;27;20191;-70
2022/10/29 11:36:55;;;;;;;3.95;3.55;;;;;;;19.35;41.76;95739.25;5136638;27;20206;-70
2022/10/29 11:39:29;;;;;;;3.85;3.40;;;;;;;19.33;41.80;95734.06;5136145;27;20246;-70
2022/10/29 11:41:58;;;;;;;4.00;3.35;;;;;;;19.33;41.83;95734.06;5137329;27;20198;-70
2022/10/29 11:44:26;;;;;;;4.53;3.42;;;;;;;19.32;41.64;95732.47;5136949;27;20202;-70